Terminal Aerodrome Forecast
Issued by NWS Jackson, MS

Home | Current Version | Previous Version | Text Only | Print | Product List | Glossary On
Versions: 1 2 3 4 5 6 7 8 9 10 11 12 13 14
000
FTUS44 KJAN 261922 AAA
TAFMEI
TAF AMD
KMEI 261922Z 2619/2718 VRB03KT P6SM VCSH BKN050
     FM262300 36007KT P6SM BKN025 BKN250
     FM270200 01003KT P6SM FEW050 BKN250
     FM270800 01007KT P6SM SCT015 OVC250=

USA.gov is the U.S. government's official web portal to all federal, state and local government web resources and services.